createdAt,value
2019-03-21T00:00:45.252Z,0
2019-03-21T00:01:45.251Z,0
2019-03-21T00:02:45.277Z,0
2019-03-21T00:03:45.265Z,0
2019-03-21T00:04:45.287Z,0
2019-03-21T00:05:45.329Z,0
2019-03-21T00:07:00.004Z,0
2019-03-21T00:07:45.380Z,0
2019-03-21T00:08:45.515Z,0
2019-03-21T00:09:45.475Z,0
2019-03-21T00:10:45.399Z,0
2019-03-21T00:12:00.100Z,0
2019-03-21T00:12:45.445Z,0
2019-03-21T00:13:45.494Z,0
2019-03-21T00:14:45.517Z,0
2019-03-21T00:15:45.309Z,0
2019-03-21T00:16:45.523Z,0
2019-03-21T00:17:45.527Z,0
2019-03-21T00:18:45.587Z,0
2019-03-21T00:19:45.583Z,0
2019-03-21T00:20:45.628Z,0
2019-03-21T00:21:45.619Z,0
2019-03-21T00:23:45.646Z,0
2019-03-21T00:24:45.705Z,0
2019-03-21T00:25:45.699Z,0
2019-03-21T00:27:45.714Z,0
2019-03-21T00:28:45.787Z,0
2019-03-21T00:29:45.762Z,0
2019-03-21T00:30:45.823Z,0
2019-03-21T00:31:45.802Z,0
2019-03-21T00:32:45.852Z,0
2019-03-21T00:34:00.500Z,0
2019-03-21T00:34:45.855Z,0
2019-03-21T00:35:45.963Z,0
2019-03-21T00:36:45.944Z,0
2019-03-21T00:37:45.912Z,0
2019-03-21T00:38:45.959Z,0
2019-03-21T00:39:45.956Z,0
2019-03-21T00:40:48.728Z,0
2019-03-21T00:41:45.977Z,0
2019-03-21T00:42:46.032Z,0
2019-03-21T00:44:00.678Z,0
2019-03-21T00:44:46.160Z,0
2019-03-21T00:45:46.075Z,0
2019-03-21T00:46:45.859Z,0
2019-03-21T00:47:46.129Z,0
2019-03-21T00:48:46.147Z,0
2019-03-21T00:50:46.278Z,0
2019-03-21T00:51:46.213Z,0
2019-03-21T00:52:46.227Z,0
2019-03-21T00:53:46.200Z,0
2019-03-21T00:54:46.252Z,0
2019-03-21T00:56:00.915Z,0
2019-03-21T00:56:46.288Z,0
2019-03-21T00:58:01.223Z,0
2019-03-21T00:58:46.356Z,0
2019-03-21T01:00:01.006Z,0
2019-03-21T01:00:46.380Z,0
2019-03-21T01:01:46.491Z,0
2019-03-21T01:02:46.456Z,0
2019-03-21T01:03:46.429Z,0
2019-03-21T01:04:46.448Z,0
2019-03-21T01:05:46.464Z,0
2019-03-21T01:06:46.504Z,0
2019-03-21T01:07:46.486Z,0
2019-03-21T01:08:46.526Z,0
2019-03-21T01:09:46.504Z,0
2019-03-21T01:10:46.559Z,0
2019-03-21T01:11:46.551Z,0
2019-03-21T01:12:46.606Z,0
2019-03-21T01:13:46.573Z,0
2019-03-21T01:14:46.713Z,0
2019-03-21T01:16:01.288Z,0
2019-03-21T01:16:46.658Z,0
2019-03-21T01:17:46.652Z,0
2019-03-21T01:18:46.716Z,0
2019-03-21T01:19:46.724Z,0
2019-03-21T01:20:46.747Z,0
2019-03-21T01:21:46.742Z,0
2019-03-21T01:22:46.784Z,0
2019-03-21T01:23:46.770Z,0
2019-03-21T01:24:46.793Z,0
2019-03-21T01:25:46.822Z,0
2019-03-21T01:26:46.882Z,0
2019-03-21T01:27:46.874Z,0
2019-03-21T01:28:46.862Z,0
2019-03-21T01:29:46.898Z,0
2019-03-21T01:30:46.964Z,0
2019-03-21T01:32:01.606Z,0
2019-03-21T01:32:46.929Z,0
2019-03-21T01:33:46.988Z,0
2019-03-21T01:34:46.991Z,0
2019-03-21T01:36:01.671Z,0
2019-03-21T01:36:47.012Z,0
2019-03-21T01:37:47.018Z,0
2019-03-21T01:38:47.078Z,0
2019-03-21T01:39:47.081Z,0
2019-03-21T01:40:47.120Z,0
2019-03-21T01:42:01.756Z,0
2019-03-21T01:42:47.157Z,0
2019-03-21T01:43:47.146Z,0
2019-03-21T01:44:48.560Z,0
2019-03-21T01:45:47.216Z,0
2019-03-21T01:47:01.855Z,0
2019-03-21T01:47:47.221Z,0
2019-03-21T01:48:47.368Z,0
2019-03-21T01:49:47.267Z,0
2019-03-21T01:50:47.307Z,0
2019-03-21T01:52:01.965Z,0
2019-03-21T01:53:47.332Z,0
2019-03-21T01:54:47.335Z,0
2019-03-21T01:55:47.393Z,0
2019-03-21T01:57:47.435Z,0
2019-03-21T01:58:47.428Z,0
2019-03-21T01:59:47.475Z,0
2019-03-21T02:00:47.450Z,0
2019-03-21T02:01:47.496Z,0
2019-03-21T02:02:47.497Z,0
2019-03-21T02:03:47.555Z,0
2019-03-21T02:04:47.561Z,0
2019-03-21T02:05:47.562Z,0
2019-03-21T02:06:47.575Z,0
2019-03-21T02:07:47.580Z,0
2019-03-21T02:08:47.638Z,0
2019-03-21T02:10:02.322Z,0
2019-03-21T02:10:47.660Z,0
2019-03-21T02:11:47.681Z,0
2019-03-21T02:12:47.687Z,0
2019-03-21T02:13:47.733Z,0
2019-03-21T02:14:58.889Z,0
2019-03-21T02:15:50.707Z,0
2019-03-21T02:16:47.752Z,0
2019-03-21T02:17:47.772Z,0
2019-03-21T02:19:02.474Z,0
2019-03-21T02:19:47.821Z,0
2019-03-21T02:20:47.865Z,0
2019-03-21T02:21:47.837Z,0
2019-03-21T02:22:47.900Z,0
2019-03-21T02:23:47.902Z,0
2019-03-21T02:24:47.952Z,0
2019-03-21T02:25:47.958Z,0
2019-03-21T02:26:47.949Z,0
2019-03-21T02:28:02.619Z,0
2019-03-21T02:28:48.026Z,0
2019-03-21T02:29:48.022Z,0
2019-03-21T02:30:48.057Z,0
2019-03-21T02:31:48.030Z,0
2019-03-21T02:33:02.748Z,0
2019-03-21T02:33:48.076Z,0
2019-03-21T02:35:02.684Z,0
2019-03-21T02:35:48.145Z,0
2019-03-21T02:36:48.200Z,0
2019-03-21T02:38:48.202Z,0
2019-03-21T02:40:01.653Z,0
2019-03-21T02:40:48.254Z,0
2019-03-21T02:41:48.278Z,0
2019-03-21T02:42:48.264Z,0
2019-03-21T02:43:48.291Z,0
2019-03-21T02:45:48.348Z,0
2019-03-21T02:46:48.405Z,0
2019-03-21T02:47:48.376Z,0
2019-03-21T02:48:48.364Z,0
2019-03-21T02:49:48.417Z,0
2019-03-21T02:51:02.806Z,0
2019-03-21T02:51:48.432Z,0
2019-03-21T02:52:48.473Z,0
2019-03-21T02:53:48.482Z,0
2019-03-21T02:54:48.507Z,0
2019-03-21T02:55:48.482Z,0
2019-03-21T02:56:48.588Z,0
2019-03-21T02:57:48.513Z,0
2019-03-21T02:58:48.578Z,0
2019-03-21T02:59:48.563Z,0
2019-03-21T03:00:48.617Z,0
2019-03-21T03:01:48.614Z,0
2019-03-21T03:03:03.299Z,0
2019-03-21T03:04:03.302Z,0
2019-03-21T03:04:48.679Z,0
2019-03-21T03:05:48.663Z,0
2019-03-21T03:07:04.855Z,0
2019-03-21T03:07:48.713Z,0
2019-03-21T03:08:48.744Z,0
2019-03-21T03:10:03.425Z,0
2019-03-21T03:10:48.823Z,0
2019-03-21T03:11:48.823Z,0
2019-03-21T03:12:48.804Z,0
2019-03-21T03:13:48.862Z,0
2019-03-21T03:14:48.829Z,0
2019-03-21T03:15:48.901Z,0
2019-03-21T03:16:48.900Z,0
2019-03-21T03:17:48.928Z,0
2019-03-21T03:20:03.669Z,0
2019-03-21T03:20:48.838Z,0
2019-03-21T03:22:03.720Z,0
2019-03-21T03:22:49.022Z,0
2019-03-21T03:23:49.008Z,0
2019-03-21T03:24:49.063Z,0
2019-03-21T03:25:52.920Z,0
2019-03-21T03:26:48.874Z,0
2019-03-21T03:28:03.755Z,0
2019-03-21T03:28:49.106Z,0
2019-03-21T03:29:49.146Z,0
2019-03-21T03:30:49.227Z,0
2019-03-21T03:31:49.185Z,0
2019-03-21T03:32:49.209Z,0
2019-03-21T03:33:49.290Z,0
2019-03-21T03:34:49.056Z,0
2019-03-21T03:36:03.894Z,0
2019-03-21T03:36:49.382Z,0
2019-03-21T03:37:49.377Z,0
2019-03-21T03:38:49.282Z,0
2019-03-21T03:39:49.319Z,0
2019-03-21T03:40:49.364Z,0
2019-03-21T03:42:49.356Z,0
2019-03-21T03:43:49.486Z,0
2019-03-21T03:44:49.393Z,0
2019-03-21T03:46:04.108Z,0
2019-03-21T03:46:49.445Z,0
2019-03-21T03:47:49.513Z,0
2019-03-21T03:48:49.514Z,0
2019-03-21T03:49:49.500Z,0
2019-03-21T03:50:49.557Z,0
2019-03-21T03:51:49.517Z,0
2019-03-21T03:53:04.230Z,0
2019-03-21T03:54:04.217Z,0
2019-03-21T03:54:49.632Z,0
2019-03-21T03:55:49.621Z,0
2019-03-21T03:56:49.398Z,0
2019-03-21T03:58:04.052Z,0
2019-03-21T03:58:49.695Z,0
2019-03-21T03:59:49.685Z,0
2019-03-21T04:00:49.742Z,0
2019-03-21T04:01:49.724Z,0
2019-03-21T04:02:49.787Z,0
2019-03-21T04:03:49.747Z,0
2019-03-21T04:04:49.805Z,0
2019-03-21T04:06:04.483Z,0
2019-03-21T04:07:04.470Z,0
2019-03-21T04:07:49.851Z,0
2019-03-21T04:08:49.853Z,0
2019-03-21T04:10:04.559Z,0
2019-03-21T04:10:49.865Z,0
2019-03-21T04:11:49.949Z,0
2019-03-21T04:12:49.956Z,0
2019-03-21T04:13:49.970Z,0
2019-03-21T04:14:49.954Z,0
2019-03-21T04:16:00.200Z,0
2019-03-21T04:16:50.024Z,0
2019-03-21T04:17:50.037Z,0
2019-03-21T04:19:04.734Z,0
2019-03-21T04:19:50.059Z,0
2019-03-21T04:21:04.751Z,0
2019-03-21T04:22:04.736Z,0
2019-03-21T04:22:50.117Z,0
2019-03-21T04:23:50.158Z,0
2019-03-21T04:26:04.849Z,0
2019-03-21T04:26:50.191Z,0
2019-03-21T04:27:50.201Z,0
2019-03-21T04:28:50.268Z,0
2019-03-21T04:29:50.262Z,0
2019-03-21T04:31:04.925Z,0
2019-03-21T04:31:50.320Z,0
2019-03-21T04:32:50.278Z,0
2019-03-21T04:33:50.360Z,0
2019-03-21T04:35:04.982Z,0
2019-03-21T04:35:50.385Z,0
2019-03-21T04:36:50.380Z,0
2019-03-21T04:38:05.051Z,0
2019-03-21T04:38:50.408Z,0
2019-03-21T04:40:50.458Z,0
2019-03-21T04:42:05.106Z,0
2019-03-21T04:42:50.661Z,0
2019-03-21T04:43:50.522Z,0
2019-03-21T04:44:51.711Z,0
2019-03-21T04:45:50.541Z,0
2019-03-21T04:46:50.533Z,4
2019-03-21T04:48:05.259Z,4
2019-03-21T04:48:50.640Z,0
2019-03-21T04:50:50.641Z,8
2019-03-21T04:51:50.659Z,4
2019-03-21T04:52:50.652Z,4
2019-03-21T04:53:53.225Z,8
2019-03-21T04:54:50.704Z,8
2019-03-21T04:55:50.724Z,8
2019-03-21T04:57:05.390Z,12
2019-03-21T04:57:50.785Z,12
2019-03-21T04:59:05.431Z,12
2019-03-21T04:59:50.821Z,20
2019-03-21T05:00:50.855Z,16
2019-03-21T05:01:50.861Z,20
2019-03-21T05:02:50.835Z,28
2019-03-21T05:04:05.536Z,32
2019-03-21T05:04:50.918Z,32
2019-03-21T05:05:50.921Z,40
2019-03-21T05:06:50.965Z,44
2019-03-21T05:07:50.930Z,48
2019-03-21T05:09:05.642Z,60
2019-03-21T05:09:50.963Z,60
2019-03-21T05:10:51.000Z,64
2019-03-21T05:11:51.019Z,68
2019-03-21T05:12:51.073Z,76
2019-03-21T05:13:51.083Z,80
2019-03-21T05:14:51.075Z,84
2019-03-21T05:15:51.091Z,88
2019-03-21T05:16:51.091Z,88
2019-03-21T05:17:51.161Z,92
2019-03-21T05:18:51.138Z,100
2019-03-21T05:19:51.190Z,104
2019-03-21T05:20:51.239Z,112
2019-03-21T05:21:51.202Z,120
2019-03-21T05:22:51.331Z,128
2019-03-21T05:23:51.269Z,136
2019-03-21T05:25:05.914Z,148
2019-03-21T05:25:51.288Z,156
2019-03-21T05:26:51.298Z,164
2019-03-21T05:29:06.000Z,180
2019-03-21T05:29:51.121Z,184
2019-03-21T05:30:51.399Z,188
2019-03-21T05:31:51.373Z,188
2019-03-21T05:32:51.428Z,196
2019-03-21T05:34:05.828Z,196
2019-03-21T05:34:51.451Z,204
2019-03-21T05:35:51.469Z,212
2019-03-21T05:36:52.941Z,224
2019-03-21T05:37:51.528Z,236
2019-03-21T05:38:51.505Z,244
2019-03-21T05:39:51.551Z,264
2019-03-21T05:41:06.211Z,284
2019-03-21T05:41:51.590Z,292
2019-03-21T05:42:51.575Z,304
2019-03-21T05:43:51.638Z,316
2019-03-21T05:45:06.306Z,328
2019-03-21T05:45:51.650Z,324
2019-03-21T05:46:51.663Z,312
2019-03-21T05:47:51.738Z,308
2019-03-21T05:48:51.698Z,308
2019-03-21T05:49:51.733Z,316
2019-03-21T05:51:06.393Z,360
2019-03-21T05:52:06.431Z,408
2019-03-21T05:52:51.776Z,432
2019-03-21T05:53:51.810Z,448
2019-03-21T05:54:51.863Z,468
2019-03-21T05:55:51.824Z,484
2019-03-21T05:56:51.865Z,492
2019-03-21T05:57:51.871Z,492
2019-03-21T05:58:51.921Z,484
2019-03-21T05:59:51.896Z,504
2019-03-21T06:01:51.782Z,504
2019-03-21T06:02:52.001Z,560
2019-03-21T06:03:51.984Z,612
2019-03-21T06:04:52.033Z,628
2019-03-21T06:05:52.004Z,640
2019-03-21T06:07:52.049Z,656
2019-03-21T06:08:52.079Z,660
2019-03-21T06:09:52.102Z,656
2019-03-21T06:10:52.144Z,684
2019-03-21T06:11:52.166Z,716
2019-03-21T06:12:52.164Z,756
2019-03-21T06:13:52.269Z,792
2019-03-21T06:14:52.219Z,832
2019-03-21T06:15:52.199Z,860
2019-03-21T06:17:06.903Z,884
2019-03-21T06:18:52.264Z,920
2019-03-21T06:19:52.279Z,956
2019-03-21T06:20:52.333Z,1012
2019-03-21T06:21:52.353Z,1112
2019-03-21T06:22:52.346Z,1156
2019-03-21T06:23:52.371Z,1184
2019-03-21T06:24:52.475Z,1192
2019-03-21T06:25:52.469Z,1220
2019-03-21T06:26:55.164Z,1240
2019-03-21T06:27:52.214Z,1252
2019-03-21T06:29:07.113Z,1244
2019-03-21T06:29:52.492Z,1248
2019-03-21T06:31:07.138Z,1288
2019-03-21T06:32:07.160Z,1316
2019-03-21T06:32:52.558Z,1332
2019-03-21T06:33:52.538Z,1380
2019-03-21T06:34:52.594Z,1384
2019-03-21T06:35:52.583Z,1320
2019-03-21T06:36:52.642Z,1352
2019-03-21T06:37:52.658Z,1360
2019-03-21T06:38:52.648Z,1380
2019-03-21T06:39:52.678Z,1392
2019-03-21T06:40:52.705Z,1424
2019-03-21T06:41:52.687Z,1396
2019-03-21T06:42:52.741Z,1304
2019-03-21T06:43:52.760Z,1268
2019-03-21T06:44:52.791Z,1260
2019-03-21T06:45:55.394Z,1280
2019-03-21T06:46:57.080Z,1308
2019-03-21T06:47:55.472Z,1332
2019-03-21T06:48:52.875Z,1320
2019-03-21T06:49:53.825Z,1320
2019-03-21T06:50:52.949Z,1360
2019-03-21T06:51:52.891Z,1368
2019-03-21T06:52:52.935Z,1368
2019-03-21T06:53:52.910Z,1400
2019-03-21T06:54:52.949Z,1468
2019-03-21T06:55:52.971Z,1508
2019-03-21T06:56:52.999Z,1520
2019-03-21T06:57:53.034Z,1524
2019-03-21T06:58:55.019Z,1544
2019-03-21T07:00:07.715Z,1580
2019-03-21T07:00:53.048Z,1572
2019-03-21T07:01:53.098Z,1588
2019-03-21T07:02:53.076Z,1612
2019-03-21T07:04:12.167Z,1596
2019-03-21T07:04:53.166Z,1600
2019-03-21T07:05:53.157Z,1624
2019-03-21T07:07:53.214Z,1656
2019-03-21T07:08:53.195Z,1672
2019-03-21T07:09:53.256Z,1688
2019-03-21T07:10:53.230Z,1732
2019-03-21T07:11:53.297Z,1792
2019-03-21T07:12:53.302Z,1864
2019-03-21T07:13:53.328Z,1848
2019-03-21T07:14:53.333Z,1840
2019-03-21T07:16:09.372Z,1896
2019-03-21T07:17:04.767Z,1932
2019-03-21T07:17:53.365Z,1968
2019-03-21T07:19:08.078Z,1972
2019-03-21T07:20:08.071Z,1908
2019-03-21T07:20:53.464Z,1892
2019-03-21T07:21:53.477Z,1872
2019-03-21T07:22:53.502Z,1916
2019-03-21T07:23:53.491Z,1948
2019-03-21T07:24:53.496Z,1928
2019-03-21T07:25:53.560Z,1876
2019-03-21T07:26:53.550Z,1848
2019-03-21T07:27:53.600Z,1868
2019-03-21T07:28:53.575Z,1932
2019-03-21T07:29:53.634Z,1964
2019-03-21T07:30:53.613Z,1932
2019-03-21T07:32:08.343Z,1928
2019-03-21T07:32:53.672Z,2032
2019-03-21T07:34:10.138Z,1964
2019-03-21T07:34:53.699Z,1980
2019-03-21T07:36:08.404Z,2108
2019-03-21T07:36:53.737Z,2164
2019-03-21T07:37:53.846Z,2196
2019-03-21T07:38:53.784Z,2072
2019-03-21T07:39:53.831Z,1968
2019-03-21T07:40:53.806Z,1944
2019-03-21T07:41:53.842Z,1836
2019-03-21T07:42:53.861Z,1720
2019-03-21T07:43:53.656Z,1768
2019-03-21T07:44:53.932Z,1796
2019-03-21T07:45:53.922Z,1816
2019-03-21T07:46:53.946Z,1808
2019-03-21T07:47:53.979Z,1852
2019-03-21T07:48:53.718Z,1936
2019-03-21T07:49:54.006Z,2064
2019-03-21T07:50:53.997Z,2044
2019-03-21T07:52:08.712Z,2140
2019-03-21T07:52:54.036Z,2212
2019-03-21T07:54:53.861Z,2208
2019-03-21T07:55:54.109Z,2200
2019-03-21T07:56:54.127Z,2196
2019-03-21T07:57:54.129Z,2064
2019-03-21T07:59:54.187Z,2172
2019-03-21T08:00:54.227Z,2132
2019-03-21T08:02:54.243Z,1904
2019-03-21T08:03:54.348Z,1732
2019-03-21T08:04:54.304Z,1792
2019-03-21T08:05:54.299Z,1876
2019-03-21T08:07:08.992Z,1752
2019-03-21T08:07:54.379Z,1644
2019-03-21T08:08:54.130Z,1620
2019-03-21T08:09:55.694Z,1736
2019-03-21T08:10:54.425Z,1744
2019-03-21T08:11:54.413Z,1748
2019-03-21T08:12:54.210Z,1852
2019-03-21T08:14:09.103Z,1904
2019-03-21T08:14:54.464Z,1896
2019-03-21T08:15:54.504Z,1872
2019-03-21T08:17:54.557Z,2072
2019-03-21T08:18:54.535Z,2208
2019-03-21T08:20:09.347Z,2468
2019-03-21T08:21:04.970Z,2644
2019-03-21T08:21:54.613Z,2632
2019-03-21T08:22:54.629Z,2456
2019-03-21T08:23:54.673Z,2380
2019-03-21T08:24:54.688Z,2412
2019-03-21T08:25:54.686Z,2504
2019-03-21T08:26:54.700Z,2444
2019-03-21T08:27:56.700Z,2552
2019-03-21T08:28:54.744Z,2444
2019-03-21T08:29:54.775Z,2236
2019-03-21T08:30:54.769Z,2232
2019-03-21T08:31:54.830Z,2416
2019-03-21T08:33:09.468Z,2328
2019-03-21T08:33:54.905Z,2348
2019-03-21T08:34:54.887Z,2388
2019-03-21T08:35:54.889Z,2352
2019-03-21T08:36:54.891Z,2304
2019-03-21T08:37:54.900Z,2304
2019-03-21T08:39:09.610Z,2476
2019-03-21T08:39:54.942Z,2488
2019-03-21T08:40:55.009Z,2440
2019-03-21T08:41:54.997Z,2424
2019-03-21T08:42:55.036Z,2312
2019-03-21T08:43:55.021Z,2272
2019-03-21T08:44:55.057Z,2560
2019-03-21T08:45:55.068Z,2696
2019-03-21T08:46:55.124Z,2760
2019-03-21T08:47:55.136Z,2852
2019-03-21T08:48:55.141Z,3160
2019-03-21T08:49:55.247Z,3396
2019-03-21T08:51:11.264Z,3624
2019-03-21T08:51:55.235Z,3564
2019-03-21T08:53:09.855Z,3240
2019-03-21T08:53:55.261Z,3144
2019-03-21T08:55:09.894Z,3180
2019-03-21T08:55:55.286Z,3140
2019-03-21T08:56:55.284Z,3136
2019-03-21T08:59:09.992Z,3036
2019-03-21T08:59:55.359Z,3148
2019-03-21T09:01:55.368Z,3448
2019-03-21T09:02:55.438Z,3560
2019-03-21T09:03:55.424Z,3640
2019-03-21T09:04:55.460Z,3784
2019-03-21T09:07:10.168Z,3964
2019-03-21T09:07:55.493Z,3852
2019-03-21T09:08:55.503Z,3764
2019-03-21T09:09:55.706Z,3968
2019-03-21T09:11:10.257Z,4584
2019-03-21T09:11:55.600Z,4860
2019-03-21T09:13:55.618Z,5196
2019-03-21T09:14:55.638Z,5220
2019-03-21T09:15:55.634Z,4948
2019-03-21T09:16:55.694Z,4528
2019-03-21T09:17:57.973Z,4272
2019-03-21T09:18:55.737Z,4388
2019-03-21T09:19:55.725Z,4360
2019-03-21T09:20:55.784Z,4620
2019-03-21T09:21:55.757Z,4692
2019-03-21T09:22:55.853Z,4444
2019-03-21T09:24:10.474Z,3724
2019-03-21T09:24:55.837Z,3436
2019-03-21T09:25:58.425Z,3260
2019-03-21T09:27:10.547Z,3528
2019-03-21T09:28:06.905Z,3980
2019-03-21T09:28:55.949Z,4160
2019-03-21T09:30:00.621Z,4200
2019-03-21T09:30:59.094Z,4172
2019-03-21T09:31:55.699Z,4040
2019-03-21T09:32:55.997Z,3816
2019-03-21T09:33:56.003Z,3620
2019-03-21T09:35:12.418Z,3940
2019-03-21T09:35:55.804Z,4148
2019-03-21T09:36:56.089Z,4464
2019-03-21T09:37:56.098Z,4744
2019-03-21T09:38:56.150Z,4776
2019-03-21T09:40:10.787Z,4432
2019-03-21T09:40:56.167Z,4236
2019-03-21T09:42:10.814Z,4008
2019-03-21T09:42:56.168Z,3776
2019-03-21T09:43:56.230Z,3956
2019-03-21T09:44:56.236Z,3988
2019-03-21T09:45:56.278Z,3916
2019-03-21T09:47:12.995Z,3888
2019-03-21T09:47:56.316Z,4028
2019-03-21T09:48:56.307Z,3984
2019-03-21T09:49:56.101Z,4004
2019-03-21T09:51:11.009Z,4084
2019-03-21T09:52:11.213Z,4044
2019-03-21T09:52:56.365Z,4120
2019-03-21T09:53:56.429Z,4176
2019-03-21T09:54:56.423Z,4088
2019-03-21T09:55:56.477Z,4012
2019-03-21T09:56:56.459Z,4140
2019-03-21T09:57:56.509Z,4104
2019-03-21T09:58:56.491Z,4160
2019-03-21T10:00:56.570Z,4580
2019-03-21T10:01:59.207Z,4692
2019-03-21T10:02:56.608Z,4664
2019-03-21T10:04:11.353Z,4528
2019-03-21T10:05:56.622Z,4180
2019-03-21T10:06:56.655Z,4352
2019-03-21T10:07:59.265Z,4636
2019-03-21T10:09:56.761Z,4672
2019-03-21T10:10:56.727Z,4716
2019-03-21T10:11:56.788Z,4980
2019-03-21T10:12:58.025Z,4960
2019-03-21T10:14:11.468Z,4788
2019-03-21T10:15:11.505Z,4756
2019-03-21T10:15:56.611Z,4752
2019-03-21T10:17:11.515Z,4680
2019-03-21T10:17:56.911Z,4576
2019-03-21T10:18:56.897Z,4356
2019-03-21T10:20:56.969Z,4124
2019-03-21T10:22:11.638Z,4056
2019-03-21T10:22:56.983Z,4260
2019-03-21T10:23:57.025Z,4792
2019-03-21T10:24:57.060Z,4924
2019-03-21T10:25:57.031Z,5068
2019-03-21T10:26:57.088Z,5244
2019-03-21T10:27:57.084Z,5284
2019-03-21T10:30:11.786Z,5292
2019-03-21T10:30:59.603Z,5220
2019-03-21T10:31:57.198Z,5232
2019-03-21T10:32:57.175Z,5268
2019-03-21T10:33:57.234Z,5272
2019-03-21T10:36:57.272Z,4916
2019-03-21T10:38:11.938Z,4928
2019-03-21T10:38:57.345Z,4864
2019-03-21T10:40:11.973Z,4676
2019-03-21T10:40:57.373Z,4616
2019-03-21T10:41:57.380Z,4500
2019-03-21T10:43:13.130Z,4560
2019-03-21T10:43:57.410Z,4588
2019-03-21T10:44:57.452Z,4716
2019-03-21T10:46:12.097Z,4580
2019-03-21T10:46:57.513Z,4336
2019-03-21T10:47:57.475Z,4328
2019-03-21T10:48:57.516Z,4660
2019-03-21T10:49:57.535Z,4920
2019-03-21T10:50:57.576Z,5576
2019-03-21T10:52:02.300Z,5828
2019-03-21T10:52:57.596Z,6076
2019-03-21T10:54:12.283Z,5764
2019-03-21T10:55:12.278Z,5576
2019-03-21T10:55:57.410Z,5552
2019-03-21T10:56:57.667Z,5752
2019-03-21T10:57:57.718Z,5552
2019-03-21T10:58:57.738Z,5448
2019-03-21T10:59:57.738Z,5220
2019-03-21T11:00:57.753Z,5120
2019-03-21T11:02:12.559Z,5212
2019-03-21T11:02:57.589Z,5152
2019-03-21T11:03:57.803Z,5000
2019-03-21T11:04:57.873Z,5032
2019-03-21T11:05:57.853Z,4928
2019-03-21T11:07:57.892Z,5232
2019-03-21T11:08:57.928Z,5268
2019-03-21T11:09:57.960Z,5260
2019-03-21T11:10:57.974Z,5056
2019-03-21T11:11:57.972Z,5088
2019-03-21T11:12:58.033Z,5108
2019-03-21T11:13:58.032Z,5304
2019-03-21T11:14:58.067Z,5376
2019-03-21T11:15:58.105Z,5460
2019-03-21T11:17:12.760Z,5456
2019-03-21T11:17:57.867Z,5408
2019-03-21T11:18:58.126Z,5204
2019-03-21T11:19:58.173Z,5104
2019-03-21T11:20:58.188Z,5176
2019-03-21T11:22:12.872Z,5180
2019-03-21T11:23:00.587Z,5144
2019-03-21T11:23:58.233Z,5076
2019-03-21T11:24:58.240Z,5340
2019-03-21T11:25:58.063Z,5544
2019-03-21T11:27:12.933Z,5456
2019-03-21T11:28:12.733Z,5620
2019-03-21T11:28:58.354Z,5636
2019-03-21T11:29:58.356Z,5932
2019-03-21T11:31:13.034Z,5880
2019-03-21T11:31:58.375Z,5920
2019-03-21T11:32:58.427Z,5748
2019-03-21T11:33:58.432Z,5820
2019-03-21T11:35:01.102Z,5368
2019-03-21T11:36:13.156Z,5396
2019-03-21T11:36:58.492Z,5416
2019-03-21T11:37:58.554Z,5504
2019-03-21T11:39:58.538Z,5516
2019-03-21T11:41:58.629Z,5284
2019-03-21T11:42:58.643Z,5168
2019-03-21T11:43:58.678Z,5148
2019-03-21T11:44:58.760Z,4968
2019-03-21T11:46:00.215Z,4932
2019-03-21T11:46:58.794Z,5140
2019-03-21T11:47:59.862Z,5204
2019-03-21T11:49:13.400Z,4972
2019-03-21T11:49:58.812Z,4856
2019-03-21T11:50:58.807Z,4824
2019-03-21T11:51:58.862Z,4756
2019-03-21T11:52:58.834Z,4924
2019-03-21T11:54:13.504Z,5108
2019-03-21T11:54:58.882Z,5008
2019-03-21T11:55:58.917Z,4828
2019-03-21T11:56:58.981Z,4732
2019-03-21T11:57:58.926Z,4644
2019-03-21T11:58:58.972Z,4688
2019-03-21T11:59:59.673Z,4976
2019-03-21T12:00:59.034Z,5132
2019-03-21T12:01:58.995Z,5184
2019-03-21T12:02:59.040Z,5272
2019-03-21T12:03:59.051Z,5632
2019-03-21T12:05:13.747Z,5492
2019-03-21T12:05:59.132Z,5408
2019-03-21T12:06:59.138Z,5548
2019-03-21T12:08:13.794Z,5620
2019-03-21T12:08:59.188Z,5552
2019-03-21T12:09:59.197Z,5456
2019-03-21T12:10:59.219Z,5488
2019-03-21T12:11:59.194Z,5584
2019-03-21T12:12:59.219Z,5620
2019-03-21T12:13:59.283Z,5696
2019-03-21T12:15:13.937Z,5752
2019-03-21T12:16:13.980Z,5524
2019-03-21T12:16:59.324Z,5364
2019-03-21T12:17:59.362Z,5368
2019-03-21T12:18:59.349Z,5368
2019-03-21T12:19:59.440Z,5324
2019-03-21T12:21:28.728Z,5356
2019-03-21T12:21:59.420Z,5372
2019-03-21T12:22:59.472Z,5328
2019-03-21T12:23:59.461Z,5312
2019-03-21T12:24:59.546Z,5068
2019-03-21T12:25:59.493Z,4848
2019-03-21T12:26:59.511Z,4740
2019-03-21T12:28:01.444Z,4716
2019-03-21T12:28:59.579Z,4820
2019-03-21T12:29:59.617Z,4948
2019-03-21T12:30:59.601Z,5052
2019-03-21T12:32:14.305Z,5236
2019-03-21T12:32:59.651Z,5224
2019-03-21T12:34:14.336Z,5012
2019-03-21T12:34:59.715Z,4828
2019-03-21T12:35:59.701Z,4688
2019-03-21T12:37:14.384Z,4708
2019-03-21T12:38:14.432Z,4724
2019-03-21T12:38:59.773Z,4868
2019-03-21T12:39:59.825Z,4840
2019-03-21T12:40:59.811Z,4784
2019-03-21T12:41:59.877Z,4788
2019-03-21T12:42:59.946Z,4824
2019-03-21T12:43:59.878Z,4788
2019-03-21T12:44:59.906Z,4808
2019-03-21T12:45:59.950Z,4792
2019-03-21T12:47:14.622Z,4780
2019-03-21T12:47:59.950Z,4736
2019-03-21T12:48:59.990Z,4780
2019-03-21T12:50:00.049Z,4776
2019-03-21T12:51:00.051Z,4728
2019-03-21T12:52:14.716Z,4664
2019-03-21T12:53:00.082Z,4652
2019-03-21T12:54:00.127Z,4684
2019-03-21T12:55:00.103Z,4680
2019-03-21T12:56:00.161Z,4572
2019-03-21T12:57:00.328Z,4480
2019-03-21T12:58:00.194Z,4452
2019-03-21T12:59:00.176Z,4368
2019-03-21T13:01:00.237Z,4360
2019-03-21T13:02:14.931Z,4332
2019-03-21T13:03:00.277Z,4372
2019-03-21T13:04:14.975Z,4372
2019-03-21T13:05:00.353Z,4276
2019-03-21T13:06:00.368Z,4188
2019-03-21T13:07:00.379Z,4088
2019-03-21T13:08:00.138Z,3988
2019-03-21T13:09:00.409Z,3956
2019-03-21T13:10:00.434Z,4028
2019-03-21T13:12:00.456Z,4192
2019-03-21T13:13:00.515Z,4216
2019-03-21T13:14:00.509Z,4304
2019-03-21T13:15:15.189Z,4416
2019-03-21T13:16:00.566Z,4492
2019-03-21T13:17:00.552Z,4396
2019-03-21T13:18:02.903Z,4400
2019-03-21T13:19:00.626Z,4420
2019-03-21T13:21:00.678Z,4448
2019-03-21T13:22:00.661Z,4416
2019-03-21T13:23:00.961Z,4408
2019-03-21T13:24:18.240Z,4516
2019-03-21T13:25:00.736Z,4520
2019-03-21T13:26:00.757Z,4456
2019-03-21T13:27:02.647Z,4384
2019-03-21T13:28:00.792Z,4344
2019-03-21T13:29:00.836Z,4236
2019-03-21T13:30:03.432Z,4200
2019-03-21T13:31:00.884Z,4272
2019-03-21T13:32:00.990Z,4324
2019-03-21T13:33:00.908Z,4356
2019-03-21T13:34:00.908Z,4304
2019-03-21T13:35:02.371Z,4220
2019-03-21T13:36:00.970Z,4196
2019-03-21T13:38:01.283Z,4100
2019-03-21T13:39:01.043Z,4104
2019-03-21T13:40:15.691Z,4064
2019-03-21T13:41:01.055Z,3984
2019-03-21T13:42:01.115Z,3968
2019-03-21T13:43:01.095Z,4160
2019-03-21T13:44:01.186Z,4196
2019-03-21T13:45:01.176Z,4116
2019-03-21T13:46:01.194Z,4020
2019-03-21T13:47:01.180Z,3936
2019-03-21T13:48:01.231Z,3876
2019-03-21T13:49:01.228Z,3892
2019-03-21T13:50:01.290Z,3948
2019-03-21T13:51:01.299Z,4152
2019-03-21T13:53:22.997Z,4368
2019-03-21T13:54:01.333Z,4316
2019-03-21T13:55:01.353Z,4244
2019-03-21T13:56:16.157Z,4096
2019-03-21T13:58:01.399Z,3980
2019-03-21T13:59:01.464Z,3988
2019-03-21T14:00:01.551Z,4004
2019-03-21T14:01:01.512Z,4056
2019-03-21T14:02:01.496Z,4040
2019-03-21T14:03:01.534Z,4000
2019-03-21T14:04:04.148Z,4008
2019-03-21T14:05:01.573Z,3980
2019-03-21T14:06:02.639Z,3956
2019-03-21T14:07:01.655Z,3980
2019-03-21T14:08:16.304Z,3888
2019-03-21T14:09:16.290Z,3860
2019-03-21T14:10:01.448Z,3828
2019-03-21T14:11:01.679Z,3888
2019-03-21T14:12:16.360Z,4064
2019-03-21T14:13:01.750Z,4076
2019-03-21T14:14:01.767Z,4192
2019-03-21T14:16:17.550Z,4336
2019-03-21T14:19:01.840Z,4472
2019-03-21T14:20:01.903Z,4436
2019-03-21T14:21:01.899Z,4476
2019-03-21T14:22:02.014Z,4532
2019-03-21T14:23:01.968Z,4708
2019-03-21T14:24:16.603Z,4856
2019-03-21T14:25:02.012Z,4884
2019-03-21T14:26:02.018Z,4884
2019-03-21T14:27:16.685Z,4724
2019-03-21T14:29:12.091Z,4584
2019-03-21T14:30:08.650Z,4560
2019-03-21T14:31:16.758Z,4436
2019-03-21T14:32:02.151Z,4412
2019-03-21T14:33:02.172Z,4388
2019-03-21T14:34:02.179Z,4356
2019-03-21T14:35:01.950Z,4332
2019-03-21T14:36:16.855Z,4332